Time;durP1;ratioP1;P1;durP2;ratioP2;P2;SDS_P1;SDS_P2;PMS_P1;PMS_P2;Temp;Humidity;BMP_temperature;BMP_pressure;BME280_temperature;BME280_humidity;BME280_pressure;Samples;Min_cycle;Max_cycle;Signal;HPM_P1;HPM_P2
2021/05/15 00:02:11;;;;;;;1.80;1.40;;;;;;;18.33;100.00;100715.38;5055828;28;20060;-75
2021/05/15 00:04:57;;;;;;;6.72;2.00;;;;;;;18.18;100.00;100708.19;5056365;28;20032;-73
2021/05/15 00:07:43;;;;;;;3.33;1.88;;;;;;;18.12;100.00;100703.16;5056083;28;20494;-74
2021/05/15 00:10:30;;;;;;;4.13;1.80;;;;;;;18.25;100.00;100704.28;5042251;28;20065;-75
2021/05/15 00:13:16;;;;;;;2.35;1.50;;;;;;;18.48;100.00;100698.75;5055267;28;20064;-74
2021/05/15 00:16:02;;;;;;;4.53;1.90;;;;;;;17.96;100.00;100696.88;5055914;28;20059;-74
2021/05/15 00:18:48;;;;;;;3.97;1.80;;;;;;;18.12;100.00;100697.88;5042318;28;20021;-73
2021/05/15 00:21:37;;;;;;;3.13;1.90;;;;;;;18.17;100.00;100697.66;5055355;28;20090;-75
2021/05/15 00:24:23;;;;;;;3.58;1.60;;;;;;;18.33;100.00;100695.97;5056328;28;20087;-74
2021/05/15 00:27:09;;;;;;;2.78;1.88;;;;;;;18.22;100.00;100703.59;5041571;28;20441;-75
2021/05/15 00:29:55;;;;;;;5.03;1.70;;;;;;;18.41;100.00;100699.13;5054944;28;20111;-74
2021/05/15 00:32:41;;;;;;;4.32;1.80;;;;;;;18.35;100.00;100686.16;5054993;28;20364;-75
2021/05/15 00:35:27;;;;;;;6.18;2.20;;;;;;;18.67;100.00;100694.22;5054866;28;20029;-75
2021/05/15 00:38:13;;;;;;;2.90;1.80;;;;;;;18.26;100.00;100683.94;5054531;28;20468;-75
2021/05/15 00:40:59;;;;;;;3.03;1.75;;;;;;;18.20;100.00;100681.56;5055033;28;20378;-75
2021/05/15 00:43:59;;;;;;;4.45;1.70;;;;;;;18.40;100.00;100676.16;5054489;28;20025;-76
2021/05/15 00:46:46;;;;;;;5.07;2.00;;;;;;;18.18;100.00;100681.66;5039845;28;20025;-75
2021/05/15 00:49:31;;;;;;;3.35;2.00;;;;;;;18.43;100.00;100676.03;5040653;28;20032;-75
2021/05/15 00:52:21;;;;;;;3.72;1.90;;;;;;;18.21;100.00;100673.53;5055512;28;20104;-76
2021/05/15 00:55:12;;;;;;;3.28;1.98;;;;;;;18.21;100.00;100665.59;5054151;28;20024;-76
2021/05/15 00:57:58;;;;;;;4.65;1.85;;;;;;;18.48;100.00;100668.69;5054065;28;20025;-76
2021/05/15 01:00:44;;;;;;;4.95;2.10;;;;;;;18.23;100.00;100668.16;5054179;28;20037;-75
2021/05/15 01:03:29;;;;;;;4.40;1.80;;;;;;;18.52;100.00;100667.59;5054266;28;20071;-75
2021/05/15 01:06:15;;;;;;;3.63;1.90;;;;;;;18.30;100.00;100665.16;5040534;28;20038;-76
2021/05/15 01:09:01;;;;;;;6.47;2.40;;;;;;;18.54;100.00;100660.44;5054353;28;20033;-75
2021/05/15 01:11:48;;;;;;;5.78;2.13;;;;;;;18.11;100.00;100656.38;5054062;28;20021;-74
2021/05/15 01:14:35;;;;;;;6.97;2.42;;;;;;;17.89;100.00;100662.81;5055103;28;20334;-74
2021/05/15 01:17:21;;;;;;;8.77;2.50;;;;;;;18.12;100.00;100658.09;5054310;28;20071;-76
2021/05/15 01:20:08;;;;;;;7.90;2.45;;;;;;;18.11;100.00;100663.47;5053740;28;20381;-76
2021/05/15 01:22:58;;;;;;;5.47;2.20;;;;;;;18.30;100.00;100666.94;5053872;28;20048;-76
2021/05/15 01:25:44;;;;;;;6.00;2.13;;;;;;;18.50;100.00;100667.69;5053715;28;20021;-76
2021/05/15 01:28:29;;;;;;;5.45;2.30;;;;;;;18.24;100.00;100665.44;5040451;28;20024;-75
2021/05/15 01:31:15;;;;;;;4.00;2.00;;;;;;;18.28;100.00;100667.00;5039432;28;20338;-75
2021/05/15 01:34:03;;;;;;;4.28;2.05;;;;;;;18.15;100.00;100659.72;5053473;28;20025;-76
2021/05/15 01:36:49;;;;;;;5.70;2.00;;;;;;;17.94;100.00;100663.44;5027411;28;20053;-74
2021/05/15 01:39:34;;;;;;;3.70;1.63;;;;;;;17.51;100.00;100655.78;5040118;28;20029;-75
2021/05/15 01:42:21;;;;;;;2.88;2.20;;;;;;;17.59;100.00;100659.81;5053382;28;20473;-76
2021/05/15 01:45:07;;;;;;;5.75;2.10;;;;;;;17.42;100.00;100656.22;5053990;28;20029;-75
2021/05/15 01:47:53;;;;;;;4.07;1.90;;;;;;;17.78;100.00;100663.31;5039514;28;20056;-76
2021/05/15 01:50:39;;;;;;;4.32;2.22;;;;;;;17.74;100.00;100664.41;5053677;28;20339;-76
2021/05/15 01:53:26;;;;;;;5.25;2.20;;;;;;;17.92;100.00;100666.16;5053455;28;20035;-75
2021/05/15 01:56:19;;;;;;;4.15;2.00;;;;;;;17.67;100.00;100656.78;5053225;28;20182;-75
2021/05/15 01:59:07;;;;;;;6.38;2.40;;;;;;;17.58;100.00;100665.19;5053719;28;20036;-75
2021/05/15 02:01:53;;;;;;;4.60;2.30;;;;;;;17.55;100.00;100655.59;5052948;28;20036;-76
2021/05/15 02:04:39;;;;;;;6.70;2.60;;;;;;;17.54;100.00;100658.31;5039681;28;20029;-75
2021/05/15 02:07:24;;;;;;;8.05;2.70;;;;;;;17.41;100.00;100660.66;5053116;28;20025;-76
2021/05/15 02:10:11;;;;;;;7.10;2.60;;;;;;;17.64;100.00;100663.09;5055629;28;20029;-75
2021/05/15 02:12:57;;;;;;;6.85;2.90;;;;;;;17.71;100.00;100663.66;5043741;28;20033;-76
2021/05/15 02:15:44;;;;;;;7.97;2.70;;;;;;;17.35;100.00;100655.63;5057658;28;20021;-75
2021/05/15 02:18:30;;;;;;;10.45;2.88;;;;;;;17.25;100.00;100656.09;5043102;28;20413;-75
2021/05/15 02:21:15;;;;;;;9.40;2.90;;;;;;;17.04;100.00;100655.28;5043489;28;20039;-75
2021/05/15 02:24:01;;;;;;;9.77;3.22;;;;;;;17.19;100.00;100657.25;5043199;28;20075;-75
2021/05/15 02:26:47;;;;;;;7.07;2.70;;;;;;;17.35;100.00;100657.41;5056959;28;20032;-75
2021/05/15 02:29:33;;;;;;;4.45;3.10;;;;;;;17.58;100.00;100663.41;5043605;28;20033;-76
2021/05/15 02:32:18;;;;;;;5.03;2.58;;;;;;;17.60;100.00;100674.78;5043191;28;20025;-77
2021/05/15 02:35:05;;;;;;;8.10;2.97;;;;;;;17.21;100.00;100675.72;5043072;28;20048;-76
2021/05/15 02:37:51;;;;;;;6.38;2.70;;;;;;;17.54;100.00;100679.50;5056557;28;20102;-75
2021/05/15 02:40:39;;;;;;;5.55;2.20;;;;;;;17.19;100.00;100685.50;5056806;28;20039;-76
2021/05/15 02:43:25;;;;;;;2.78;2.00;;;;;;;16.99;100.00;100686.41;5056355;28;20040;-76
2021/05/15 02:46:10;;;;;;;4.45;2.25;;;;;;;17.03;100.00;100687.97;5057839;28;20036;-77
2021/05/15 02:48:56;;;;;;;2.85;1.73;;;;;;;17.35;100.00;100681.22;5056503;28;20029;-75
2021/05/15 02:51:42;;;;;;;4.10;1.95;;;;;;;17.04;100.00;100684.41;5043099;28;20021;-77
2021/05/15 02:54:28;;;;;;;3.63;2.40;;;;;;;17.21;100.00;100687.19;5056342;28;20124;-77
2021/05/15 02:57:14;;;;;;;2.55;1.80;;;;;;;16.91;100.00;100690.28;5057006;28;20116;-76
2021/05/15 03:00:00;;;;;;;3.22;1.85;;;;;;;17.25;100.00;100680.81;5056354;28;20115;-77
2021/05/15 03:02:46;;;;;;;2.47;1.90;;;;;;;17.32;100.00;100676.09;5056262;28;20098;-75
2021/05/15 03:05:32;;;;;;;5.28;2.25;;;;;;;17.25;100.00;100677.28;5042249;28;20036;-76
2021/05/15 03:08:18;;;;;;;3.28;1.90;;;;;;;17.47;100.00;100678.06;5056266;28;20028;-76
2021/05/15 03:11:03;;;;;;;3.83;1.85;;;;;;;17.53;100.00;100675.97;5042684;28;20449;-76
2021/05/15 03:13:49;;;;;;;3.90;2.20;;;;;;;17.55;100.00;100679.44;5055927;28;20031;-76
2021/05/15 03:16:35;;;;;;;3.33;1.80;;;;;;;17.64;100.00;100672.84;5056113;28;20108;-76
2021/05/15 03:19:21;;;;;;;2.00;1.80;;;;;;;17.45;100.00;100674.63;5055723;28;20094;-76
2021/05/15 03:22:07;;;;;;;2.80;1.83;;;;;;;17.84;100.00;100678.06;5055373;28;20384;-76
2021/05/15 03:24:53;;;;;;;6.55;2.10;;;;;;;17.84;100.00;100670.97;5055664;28;20033;-75
2021/05/15 03:27:39;;;;;;;3.20;1.90;;;;;;;17.80;100.00;100673.84;5055988;28;20100;-76
2021/05/15 03:30:25;;;;;;;3.53;1.70;;;;;;;17.96;100.00;100677.44;5055899;28;20357;-76
2021/05/15 03:33:11;;;;;;;4.75;2.10;;;;;;;17.75;100.00;100675.84;5055636;28;20373;-75
2021/05/15 03:35:57;;;;;;;6.22;2.00;;;;;;;17.69;100.00;100673.50;5055760;28;20438;-76
2021/05/15 03:38:42;;;;;;;2.45;1.88;;;;;;;17.71;100.00;100675.13;5055650;28;20527;-75
2021/05/15 03:41:28;;;;;;;3.92;2.00;;;;;;;17.99;100.00;100672.88;5057237;28;20028;-75
2021/05/15 03:44:15;;;;;;;4.13;2.13;;;;;;;18.06;100.00;100684.03;5055289;28;20150;-76
2021/05/15 03:47:00;;;;;;;4.03;1.80;;;;;;;18.08;100.00;100671.56;5041610;28;20033;-75
2021/05/15 03:49:46;;;;;;;5.07;2.20;;;;;;;18.23;100.00;100684.06;5055313;28;20104;-76
2021/05/15 03:52:32;;;;;;;3.92;1.80;;;;;;;18.30;100.00;100683.72;5055407;28;20055;-76
2021/05/15 03:55:18;;;;;;;4.78;2.00;;;;;;;18.47;100.00;100681.13;5055208;28;20462;-76
2021/05/15 03:58:04;;;;;;;3.75;2.00;;;;;;;18.58;100.00;100680.56;5055394;28;20021;-76
2021/05/15 04:00:50;;;;;;;5.00;2.40;;;;;;;18.18;100.00;100686.09;5040983;28;20033;-76
2021/05/15 04:03:36;;;;;;;10.65;2.40;;;;;;;18.31;100.00;100690.75;5055106;28;20025;-76
2021/05/15 04:06:21;;;;;;;4.65;2.30;;;;;;;18.73;100.00;100687.75;5055199;28;20035;-76
2021/05/15 04:09:07;;;;;;;4.45;2.63;;;;;;;18.75;100.00;100678.78;5055634;28;20445;-76
2021/05/15 04:11:53;;;;;;;6.88;2.47;;;;;;;18.65;100.00;100682.81;5040894;28;20472;-76
2021/05/15 04:17:30;;;;;;;3.75;2.50;;;;;;;19.04;100.00;100687.88;5055731;28;20057;-75
2021/05/15 04:20:16;;;;;;;4.78;2.30;;;;;;;19.16;100.00;100689.88;5041084;28;20031;-76
2021/05/15 04:23:02;;;;;;;6.13;2.33;;;;;;;19.17;100.00;100681.81;5054717;28;20512;-75
2021/05/15 04:25:48;;;;;;;7.25;2.70;;;;;;;18.77;100.00;100686.66;5054312;28;20029;-76
2021/05/15 04:28:34;;;;;;;6.90;2.47;;;;;;;18.84;100.00;100686.25;5041131;28;20105;-76
2021/05/15 04:31:20;;;;;;;8.32;2.65;;;;;;;19.20;100.00;100681.69;5054521;28;20028;-76
2021/05/15 04:34:06;;;;;;;9.43;2.60;;;;;;;19.51;100.00;100686.22;5053408;28;20025;-76
2021/05/15 04:36:51;;;;;;;4.93;2.28;;;;;;;19.33;100.00;100700.50;5054316;28;20041;-76
2021/05/15 04:39:37;;;;;;;5.68;2.20;;;;;;;19.57;100.00;100693.84;5055025;28;20040;-76
2021/05/15 04:42:23;;;;;;;5.00;2.13;;;;;;;19.50;100.00;100700.47;5040207;28;20124;-76
2021/05/15 04:45:11;;;;;;;6.68;2.60;;;;;;;19.75;100.00;100702.63;5054368;28;20143;-76
2021/05/15 04:47:57;;;;;;;2.75;1.85;;;;;;;19.79;100.00;100704.16;5054203;28;20464;-77
2021/05/15 04:50:43;;;;;;;3.85;1.90;;;;;;;19.79;100.00;100699.72;5054634;28;20028;-75
2021/05/15 04:53:30;;;;;;;4.82;1.63;;;;;;;20.04;100.00;100699.19;5055031;28;20025;-75
2021/05/15 04:56:21;;;;;;;5.05;1.90;;;;;;;20.30;100.00;100706.59;5112993;27;20337;-76
2021/05/15 04:59:07;;;;;;;4.65;1.80;;;;;;;20.39;100.00;100708.72;5117640;28;20032;-76
2021/05/15 05:01:53;;;;;;;2.40;1.90;;;;;;;20.25;100.00;100716.66;5130789;27;20051;-75
2021/05/15 05:04:39;;;;;;;5.00;2.08;;;;;;;20.47;100.00;100723.31;5163479;27;20078;-76
2021/05/15 05:07:24;;;;;;;6.93;2.08;;;;;;;20.51;100.00;100721.31;5168013;27;20034;-76
2021/05/15 05:10:11;;;;;;;7.35;2.42;;;;;;;20.69;100.00;100726.44;5156793;27;20091;-75
2021/05/15 05:12:56;;;;;;;3.53;1.90;;;;;;;21.09;100.00;100735.63;5153354;27;20038;-77
2021/05/15 05:15:42;;;;;;;5.20;1.98;;;;;;;20.46;100.00;100728.72;5152694;27;20367;-76
2021/05/15 05:18:28;;;;;;;3.75;1.95;;;;;;;20.56;100.00;100725.44;5154729;27;20428;-76
2021/05/15 05:21:14;;;;;;;4.43;1.75;;;;;;;20.57;100.00;100736.97;5153967;27;20079;-76
2021/05/15 05:23:59;;;;;;;7.72;2.03;;;;;;;21.06;100.00;100735.81;5154088;27;20027;-76
2021/05/15 05:26:45;;;;;;;4.03;1.92;;;;;;;20.87;100.00;100738.69;5151097;27;20035;-76
2021/05/15 05:29:31;;;;;;;3.78;1.55;;;;;;;20.79;100.00;100740.06;5152375;27;20033;-76
2021/05/15 05:32:18;;;;;;;3.22;1.30;;;;;;;21.38;100.00;100740.03;5137709;27;20068;-76
2021/05/15 05:35:04;;;;;;;3.85;1.70;;;;;;;20.95;100.00;100747.09;5137936;27;20034;-76
2021/05/15 05:37:50;;;;;;;3.65;1.63;;;;;;;21.16;100.00;100750.28;5152434;27;20023;-76
2021/05/15 05:40:36;;;;;;;3.35;1.73;;;;;;;21.20;100.00;100742.00;5135598;27;20023;-76
2021/05/15 05:43:21;;;;;;;8.18;1.90;;;;;;;21.28;100.00;100744.19;5151426;27;20035;-76
2021/05/15 05:46:07;;;;;;;3.33;1.83;;;;;;;21.08;100.00;100744.53;5151641;27;20031;-76
2021/05/15 05:48:53;;;;;;;7.47;1.88;;;;;;;21.18;100.00;100749.22;5136100;27;20172;-77
2021/05/15 05:51:39;;;;;;;4.30;1.70;;;;;;;21.38;100.00;100742.72;5150717;27;20015;-76
2021/05/15 05:54:24;;;;;;;2.55;1.70;;;;;;;20.99;100.00;100745.09;5151217;27;20047;-76
2021/05/15 05:57:11;;;;;;;2.55;1.90;;;;;;;21.32;100.00;100741.25;5151663;27;20412;-76
2021/05/15 05:59:57;;;;;;;4.43;2.13;;;;;;;21.44;100.00;100737.84;5151207;27;20112;-77
2021/05/15 06:02:42;;;;;;;2.83;2.00;;;;;;;20.42;100.00;100744.03;5136868;27;20023;-76
2021/05/15 06:05:28;;;;;;;4.93;2.25;;;;;;;20.71;100.00;100734.34;5151045;27;20102;-75
2021/05/15 06:08:14;;;;;;;5.82;2.22;;;;;;;21.17;100.00;100734.19;5137120;27;20021;-76
2021/05/15 06:11:00;;;;;;;8.07;2.05;;;;;;;20.80;100.00;100737.31;5137203;27;20502;-76
2021/05/15 06:13:46;;;;;;;5.43;2.08;;;;;;;21.49;100.00;100732.22;5136238;27;20363;-76
2021/05/15 06:16:31;;;;;;;6.65;1.90;;;;;;;21.01;100.00;100725.41;5123568;27;20084;-76
2021/05/15 06:19:17;;;;;;;4.85;2.00;;;;;;;21.66;100.00;100719.56;5123157;27;20023;-76
2021/05/15 06:22:03;;;;;;;3.08;1.80;;;;;;;21.54;100.00;100712.31;5138029;27;20038;-76
2021/05/15 06:24:49;;;;;;;2.75;1.60;;;;;;;20.96;100.00;100711.53;5136806;27;20019;-76
2021/05/15 06:27:35;;;;;;;4.78;1.70;;;;;;;20.92;100.00;100717.09;5122463;27;20033;-76
2021/05/15 06:30:21;;;;;;;4.47;2.20;;;;;;;20.98;100.00;100717.59;5121150;27;20384;-76
2021/05/15 06:33:07;;;;;;;6.47;2.25;;;;;;;21.73;100.00;100706.72;5136415;27;20023;-76
2021/05/15 06:35:53;;;;;;;3.80;1.95;;;;;;;22.03;100.00;100705.59;5122206;27;20038;-76
2021/05/15 06:38:41;;;;;;;7.78;2.30;;;;;;;21.73;100.00;100707.56;5122958;27;20066;-76
2021/05/15 06:41:27;;;;;;;3.25;2.00;;;;;;;21.19;100.00;100695.00;5121755;27;20027;-76
2021/05/15 06:44:13;;;;;;;4.35;2.50;;;;;;;21.22;100.00;100681.47;5136361;27;20023;-76
2021/05/15 06:46:59;;;;;;;4.20;1.92;;;;;;;21.53;100.00;100678.63;5122643;27;20030;-76
2021/05/15 06:49:44;;;;;;;7.28;2.20;;;;;;;21.47;100.00;100670.16;5136468;27;20027;-76
2021/05/15 06:52:30;;;;;;;4.93;2.05;;;;;;;21.43;100.00;100677.50;5136634;27;20060;-75
2021/05/15 06:55:16;;;;;;;6.15;2.03;;;;;;;21.56;100.00;100672.22;5121798;27;20147;-75
2021/05/15 06:58:04;;;;;;;2.60;2.00;;;;;;;21.38;100.00;100668.06;5136787;27;20019;-75
2021/05/15 07:00:50;;;;;;;5.55;2.10;;;;;;;20.88;100.00;100667.59;5136032;27;20059;-75
2021/05/15 07:03:36;;;;;;;3.70;2.00;;;;;;;20.64;100.00;100669.94;5136104;27;20121;-76
2021/05/15 07:06:21;;;;;;;5.75;2.10;;;;;;;21.06;100.00;100670.03;5136193;27;20491;-75
2021/05/15 07:09:07;;;;;;;9.18;2.70;;;;;;;21.29;100.00;100663.28;5136629;27;20120;-77
2021/05/15 07:11:53;;;;;;;4.18;2.33;;;;;;;21.86;100.00;100662.31;5136239;27;20072;-77
2021/05/15 07:14:39;;;;;;;6.60;2.35;;;;;;;21.82;100.00;100669.66;5120816;27;20027;-77
2021/05/15 07:17:25;;;;;;;2.72;1.88;;;;;;;21.61;100.00;100657.66;5122385;27;20031;-77
2021/05/15 07:20:11;;;;;;;4.13;2.13;;;;;;;21.64;100.00;100657.47;5136239;27;20447;-77
2021/05/15 07:22:58;;;;;;;4.68;2.17;;;;;;;21.75;100.00;100657.69;5121021;27;20027;-77
2021/05/15 07:25:44;;;;;;;3.00;1.80;;;;;;;21.83;100.00;100654.50;5136151;27;20031;-77
2021/05/15 07:28:30;;;;;;;6.70;2.30;;;;;;;21.94;100.00;100655.50;5135772;27;20019;-76
2021/05/15 07:31:16;;;;;;;4.47;2.20;;;;;;;22.46;100.00;100651.16;5136736;27;20037;-76
2021/05/15 07:34:02;;;;;;;7.38;2.40;;;;;;;23.08;100.00;100655.69;5135682;27;20126;-77
2021/05/15 07:36:47;;;;;;;4.47;2.40;;;;;;;23.71;100.00;100654.81;5135333;27;20034;-77
2021/05/15 07:39:33;;;;;;;5.10;2.40;;;;;;;23.84;100.00;100651.13;5135576;27;20038;-76
2021/05/15 07:42:19;;;;;;;7.53;2.67;;;;;;;23.02;99.02;100664.16;5121664;27;20051;-76
2021/05/15 07:45:05;;;;;;;6.75;2.53;;;;;;;22.94;99.25;100669.19;5120798;27;20447;-76
2021/05/15 07:47:51;;;;;;;6.22;2.30;;;;;;;23.28;99.04;100662.38;5121592;27;20023;-76
2021/05/15 07:50:37;;;;;;;2.80;2.00;;;;;;;22.83;100.00;100663.72;5135529;27;20473;-77
2021/05/15 07:53:23;;;;;;;4.03;2.00;;;;;;;23.15;99.41;100667.69;5136044;27;20027;-76
2021/05/15 07:56:08;;;;;;;3.70;2.30;;;;;;;22.86;100.00;100659.97;5119703;27;20047;-76
2021/05/15 07:58:54;;;;;;;7.63;2.40;;;;;;;23.19;100.00;100663.00;5135231;27;20027;-76
2021/05/15 08:01:40;;;;;;;7.38;2.30;;;;;;;23.09;100.00;100660.09;5135017;27;20026;-75
2021/05/15 08:04:26;;;;;;;5.30;2.40;;;;;;;23.80;99.57;100656.81;5135251;27;20439;-75
2021/05/15 08:07:12;;;;;;;8.93;2.40;;;;;;;24.13;97.34;100660.59;5134984;27;20034;-76
2021/05/15 08:09:57;;;;;;;5.90;2.50;;;;;;;24.63;94.77;100659.50;5135005;27;20093;-76
2021/05/15 08:12:43;;;;;;;5.88;2.30;;;;;;;25.10;91.03;100664.72;5135045;27;20034;-76
2021/05/15 08:15:29;;;;;;;5.65;2.20;;;;;;;25.52;90.91;100664.06;5121476;27;20124;-75
2021/05/15 08:18:15;;;;;;;5.65;2.83;;;;;;;24.67;93.78;100664.50;5134422;27;20030;-77
2021/05/15 08:21:01;;;;;;;7.90;2.63;;;;;;;25.05;96.49;100664.22;5121304;27;20023;-77
2021/05/15 08:23:47;;;;;;;8.98;3.40;;;;;;;25.97;89.30;100661.22;5134748;27;20084;-75
2021/05/15 08:26:33;;;;;;;7.15;3.38;;;;;;;25.54;90.10;100657.59;5135823;27;20046;-76
2021/05/15 08:29:21;;;;;;;6.43;3.33;;;;;;;26.01;88.05;100659.13;5119510;27;20437;-75
2021/05/15 08:32:06;;;;;;;9.25;3.45;;;;;;;26.23;84.96;100665.28;5135016;27;20034;-76
2021/05/15 08:34:52;;;;;;;8.93;3.80;;;;;;;26.08;85.92;100663.03;5134661;27;20153;-76
2021/05/15 08:37:38;;;;;;;10.10;3.83;;;;;;;26.03;85.37;100659.84;5120530;27;20034;-76
2021/05/15 08:40:26;;;;;;;13.50;4.18;;;;;;;26.37;83.33;100656.91;5135409;27;20062;-75
2021/05/15 08:43:15;;;;;;;7.40;3.20;;;;;;;26.00;83.87;100655.59;5121502;27;20114;-77
2021/05/15 08:46:01;;;;;;;8.48;3.90;;;;;;;26.33;81.69;100652.78;5134722;27;20103;-76
2021/05/15 08:48:48;;;;;;;10.07;4.35;;;;;;;26.23;81.38;100657.22;5134425;27;20101;-75
2021/05/15 08:51:35;;;;;;;9.45;3.88;;;;;;;26.38;79.57;100652.41;5135117;27;20101;-76
2021/05/15 08:54:22;;;;;;;8.13;3.60;;;;;;;26.49;80.71;100649.69;5134846;28;20126;-76
2021/05/15 08:57:08;;;;;;;8.13;3.63;;;;;;;26.48;80.42;100648.81;5119631;28;20028;-76
2021/05/15 08:59:53;;;;;;;11.68;3.97;;;;;;;26.81;80.19;100647.84;5135125;28;20031;-76
2021/05/15 09:02:40;;;;;;;11.07;3.90;;;;;;;27.31;77.32;100644.34;5134104;28;20031;-76
2021/05/15 09:05:32;;;;;;;8.13;3.53;;;;;;;27.12;74.10;100647.75;5120093;28;20336;-76
2021/05/15 09:08:19;;;;;;;6.80;3.17;;;;;;;26.83;78.64;100646.72;5133244;28;20107;-76
2021/05/15 09:11:05;;;;;;;8.00;3.20;;;;;;;26.83;77.77;100643.16;5118799;28;20031;-76
2021/05/15 09:13:53;;;;;;;5.18;3.38;;;;;;;26.75;80.41;100649.22;5119109;28;20113;-76
2021/05/15 09:16:53;;;;;;;6.57;3.20;;;;;;;26.71;80.29;100642.41;5134037;28;20031;-76
2021/05/15 09:19:51;;;;;;;9.68;3.70;;;;;;;27.20;80.03;100641.72;5133779;28;20363;-76
2021/05/15 09:22:37;;;;;;;6.90;3.47;;;;;;;26.97;80.17;100645.53;5134331;28;20118;-76
2021/05/15 09:25:23;;;;;;;13.05;3.40;;;;;;;26.56;80.60;100651.72;5134432;28;20023;-76
2021/05/15 09:28:09;;;;;;;7.40;3.28;;;;;;;26.71;78.61;100641.53;5134676;28;20027;-76
2021/05/15 09:30:55;;;;;;;7.07;3.00;;;;;;;26.82;76.82;100634.28;5133789;28;20027;-76
2021/05/15 09:34:04;;;;;;;7.43;3.13;;;;;;;27.18;74.90;100633.78;5134698;28;20045;-76
2021/05/15 09:36:53;;;;;;;5.63;3.25;;;;;;;26.86;75.37;100642.91;5105762;28;20023;-76
2021/05/15 09:39:39;;;;;;;5.20;2.92;;;;;;;26.36;75.35;100633.72;5118735;28;20070;-76
2021/05/15 09:42:25;;;;;;;8.18;2.50;;;;;;;26.57;73.66;100623.00;5121989;27;20439;-76
2021/05/15 09:45:18;;;;;;;5.43;2.50;;;;;;;27.34;64.96;100630.63;5124436;27;20023;-76
2021/05/15 09:48:07;;;;;;;4.80;2.30;;;;;;;27.03;62.86;100627.03;5138006;27;20023;-76
2021/05/15 09:50:53;;;;;;;4.13;2.55;;;;;;;27.48;60.96;100628.41;5137531;27;20031;-76
2021/05/15 09:53:39;;;;;;;7.90;2.50;;;;;;;27.31;56.33;100630.88;5137838;27;20289;-76
2021/05/15 09:56:29;;;;;;;3.35;2.15;;;;;;;27.40;52.68;100630.06;5122272;27;20071;-76
2021/05/15 09:59:25;;;;;;;4.15;1.85;;;;;;;27.18;47.51;100617.63;5137402;27;20102;-76
2021/05/15 10:02:16;;;;;;;6.30;1.63;;;;;;;27.13;47.68;100627.09;5122736;27;20023;-76
2021/05/15 10:05:12;;;;;;;4.93;2.05;;;;;;;27.15;50.86;100615.19;5138676;27;20454;-76
2021/05/15 10:08:06;;;;;;;5.53;2.25;;;;;;;27.68;53.30;100613.16;5137158;27;20114;-75
2021/05/15 10:10:53;;;;;;;7.85;2.90;;;;;;;27.05;59.86;100602.69;5138386;27;20055;-77
2021/05/15 10:13:40;;;;;;;7.47;3.55;;;;;;;27.41;59.77;100610.25;5136964;27;20027;-76
2021/05/15 10:16:26;;;;;;;8.73;3.58;;;;;;;27.42;58.13;100614.66;5107964;27;20027;-75
2021/05/15 10:19:13;;;;;;;7.63;3.38;;;;;;;27.86;58.29;100614.22;5136826;27;20035;-76
2021/05/15 10:22:00;;;;;;;7.03;3.05;;;;;;;27.80;59.24;100612.03;5137312;27;20038;-75
2021/05/15 10:24:48;;;;;;;7.93;3.05;;;;;;;28.17;57.07;100602.38;5137408;27;20084;-76
2021/05/15 10:27:36;;;;;;;5.05;3.03;;;;;;;28.68;57.91;100594.84;5137948;27;20031;-76
2021/05/15 10:30:23;;;;;;;5.45;2.85;;;;;;;29.11;55.11;100592.50;5138284;27;20087;-75
2021/05/15 10:33:09;;;;;;;3.95;2.30;;;;;;;29.47;52.80;100593.47;5137342;27;20031;-77
2021/05/15 10:35:55;;;;;;;5.22;3.53;;;;;;;28.37;54.36;100582.47;5137977;27;20107;-75
2021/05/15 10:38:42;;;;;;;8.45;3.38;;;;;;;27.60;58.22;100572.59;5123244;27;20030;-77
2021/05/15 10:41:28;;;;;;;7.72;3.83;;;;;;;27.54;59.75;100565.09;5137096;27;20031;-76
2021/05/15 10:44:14;;;;;;;4.10;2.30;;;;;;;27.79;58.13;100569.09;5123491;27;20407;-76
2021/05/15 10:46:59;;;;;;;4.32;2.42;;;;;;;27.61;57.73;100560.88;5144112;27;20023;-75
2021/05/15 10:49:45;;;;;;;8.68;2.38;;;;;;;28.06;58.19;100554.00;5145104;27;20106;-75
2021/05/15 10:52:31;;;;;;;5.68;2.20;;;;;;;28.51;55.34;100554.28;5147155;27;20027;-76
2021/05/15 10:55:35;;;;;;;6.05;2.30;;;;;;;28.32;54.11;100546.19;5122198;27;20054;-76
2021/05/15 10:58:21;;;;;;;6.28;2.50;;;;;;;28.22;55.20;100543.50;5138327;27;20038;-75
2021/05/15 11:01:23;;;;;;;5.13;2.20;;;;;;;28.72;54.12;100544.19;5136948;27;20426;-76
2021/05/15 11:04:17;;;;;;;4.28;2.00;;;;;;;27.80;54.08;100539.34;5136197;27;20027;-76
2021/05/15 11:07:04;;;;;;;3.25;1.90;;;;;;;27.93;54.72;100539.13;5136871;27;20027;-76
2021/05/15 11:09:52;;;;;;;4.07;2.28;;;;;;;27.89;54.25;100527.78;5120945;27;20026;-76
2021/05/15 11:12:41;;;;;;;5.47;2.72;;;;;;;27.79;56.03;100532.25;5137653;27;20031;-76
2021/05/15 11:15:28;;;;;;;4.22;2.47;;;;;;;27.99;56.55;100514.28;5136500;27;20027;-76
2021/05/15 11:18:28;;;;;;;3.33;1.83;;;;;;;28.30;54.28;100515.84;5136642;27;20099;-76
2021/05/15 11:21:13;;;;;;;7.63;2.00;;;;;;;28.19;55.28;100510.59;5121163;27;20528;-76
2021/05/15 11:23:59;;;;;;;3.05;1.45;;;;;;;28.19;54.28;100511.44;5136441;27;20458;-77
2021/05/15 11:26:51;;;;;;;4.20;1.73;;;;;;;27.55;57.28;100509.44;5136041;27;20015;-77
2021/05/15 11:29:37;;;;;;;3.17;1.85;;;;;;;27.64;56.71;100497.81;5137626;27;20023;-76
2021/05/15 11:32:23;;;;;;;11.23;4.50;;;;;;;27.86;57.07;100492.19;5121953;27;20023;-76
2021/05/15 11:35:09;;;;;;;5.13;1.98;;;;;;;28.21;55.03;100493.28;5136235;27;20485;-76
2021/05/15 11:38:25;;;;;;;10.48;7.45;;;;;;;28.51;55.06;100486.88;5135590;27;20029;-76
2021/05/15 11:41:11;;;;;;;5.35;1.42;;;;;;;28.35;57.72;100478.50;5136289;27;20110;-77
2021/05/15 11:44:00;;;;;;;2.30;1.48;;;;;;;28.55;55.07;100480.19;5134764;27;20514;-76
2021/05/15 11:46:53;;;;;;;3.00;1.30;;;;;;;28.19;56.58;100468.34;5136806;27;20038;-76
2021/05/15 11:49:39;;;;;;;4.22;1.35;;;;;;;28.24;58.77;100459.84;5136654;27;20136;-76
2021/05/15 11:52:35;;;;;;;3.67;1.50;;;;;;;29.01;53.93;100461.31;5136370;27;20367;-76
2021/05/15 11:55:24;;;;;;;4.63;1.60;;;;;;;28.42;54.87;100463.50;5135146;27;20127;-77
2021/05/15 11:58:10;;;;;;;2.47;1.27;;;;;;;28.99;52.49;100458.72;5135757;27;20329;-76
2021/05/15 12:00:55;;;;;;;2.40;1.08;;;;;;;29.07;50.47;100452.59;5136587;27;20019;-76
2021/05/15 12:03:41;;;;;;;3.03;1.27;;;;;;;29.37;50.17;100458.53;5120501;27;20035;-76
2021/05/15 12:06:27;;;;;;;3.67;1.30;;;;;;;29.08;50.75;100449.75;5120640;27;20015;-76
2021/05/15 12:09:14;;;;;;;4.15;1.48;;;;;;;28.94;51.41;100444.00;5127133;27;20109;-75
2021/05/15 12:12:06;;;;;;;4.25;1.23;;;;;;;28.80;52.10;100439.94;5120193;27;20023;-76
2021/05/15 12:14:56;;;;;;;3.08;1.20;;;;;;;27.80;54.88;100423.56;5135068;27;20110;-76
2021/05/15 12:17:42;;;;;;;2.25;1.20;;;;;;;27.93;54.44;100417.91;5135070;27;20099;-75
2021/05/15 12:20:42;;;;;;;4.30;1.50;;;;;;;27.93;53.75;100417.91;5135237;27;20019;-76
2021/05/15 12:23:28;;;;;;;2.40;1.40;;;;;;;27.49;55.92;100405.88;5120319;27;20034;-75
2021/05/15 12:26:14;;;;;;;6.03;1.67;;;;;;;26.80;59.32;100404.19;5135173;27;20027;-75
2021/05/15 12:29:04;;;;;;;3.05;1.30;;;;;;;26.92;56.38;100398.53;5120947;27;20033;-76
2021/05/15 12:31:49;;;;;;;4.80;1.08;;;;;;;27.82;54.04;100397.38;5134710;27;20035;-76
2021/05/15 12:34:37;;;;;;;3.50;1.48;;;;;;;28.14;45.71;100380.84;5135997;27;20075;-76
2021/05/15 12:37:23;;;;;;;5.13;1.30;;;;;;;28.44;45.71;100380.66;5119306;27;20023;-75
2021/05/15 12:40:11;;;;;;;2.80;1.40;;;;;;;29.08;46.88;100382.31;5133276;27;20023;-77
2021/05/15 12:43:11;;;;;;;3.05;1.17;;;;;;;28.57;48.93;100376.59;5119936;27;20034;-76
2021/05/15 12:46:06;;;;;;;2.08;1.48;;;;;;;28.05;53.15;100366.44;5134636;27;20011;-75
2021/05/15 12:48:55;;;;;;;1.88;1.23;;;;;;;28.31;50.55;100374.69;5133949;27;20027;-75
2021/05/15 12:51:46;;;;;;;2.33;1.02;;;;;;;28.12;47.85;100374.78;5136031;27;20035;-75
2021/05/15 12:54:32;;;;;;;4.25;1.27;;;;;;;28.95;45.81;100362.91;5133846;28;20115;-75